sensor_id;sensor_type;location;lat;lon;timestamp;P1;durP1;ratioP1;P2;durP2;ratioP2
78903;SDS011;68291;49.602;8.722;2023-06-10T00:00:06;6.80;;;5.57;;
78903;SDS011;68291;49.602;8.722;2023-06-10T00:03:06;5.60;;;5.10;;
78903;SDS011;68291;49.602;8.722;2023-06-10T00:06:04;6.43;;;5.50;;
78903;SDS011;68291;49.602;8.722;2023-06-10T00:09:02;7.90;;;5.10;;
78903;SDS011;68291;49.602;8.722;2023-06-10T00:11:59;6.07;;;5.47;;
78903;SDS011;68291;49.602;8.722;2023-06-10T00:15:14;5.73;;;5.17;;
78903;SDS011;68291;49.602;8.722;2023-06-10T00:18:06;5.00;;;4.60;;
78903;SDS011;68291;49.602;8.722;2023-06-10T00:20:56;6.63;;;5.40;;
78903;SDS011;68291;49.602;8.722;2023-06-10T00:23:54;5.30;;;4.90;;
78903;SDS011;68291;49.602;8.722;2023-06-10T00:26:44;6.17;;;5.27;;
78903;SDS011;68291;49.602;8.722;2023-06-10T00:29:33;6.43;;;5.70;;
78903;SDS011;68291;49.602;8.722;2023-06-10T00:32:40;6.33;;;5.73;;
78903;SDS011;68291;49.602;8.722;2023-06-10T00:35:34;5.90;;;5.30;;
78903;SDS011;68291;49.602;8.722;2023-06-10T00:38:32;5.90;;;5.40;;
78903;SDS011;68291;49.602;8.722;2023-06-10T00:41:27;5.93;;;5.43;;
78903;SDS011;68291;49.602;8.722;2023-06-10T00:44:25;5.87;;;5.37;;
78903;SDS011;68291;49.602;8.722;2023-06-10T00:47:15;6.07;;;5.30;;
78903;SDS011;68291;49.602;8.722;2023-06-10T00:50:17;6.13;;;5.13;;
78903;SDS011;68291;49.602;8.722;2023-06-10T00:53:10;5.77;;;5.17;;
78903;SDS011;68291;49.602;8.722;2023-06-10T00:56:08;5.87;;;5.27;;
78903;SDS011;68291;49.602;8.722;2023-06-10T00:59:06;6.20;;;5.60;;
78903;SDS011;68291;49.602;8.722;2023-06-10T01:01:56;5.50;;;5.00;;
78903;SDS011;68291;49.602;8.722;2023-06-10T01:04:54;7.43;;;5.57;;
78903;SDS011;68291;49.602;8.722;2023-06-10T01:08:09;6.00;;;5.40;;
78903;SDS011;68291;49.602;8.722;2023-06-10T01:11:12;6.13;;;5.53;;
78903;SDS011;68291;49.602;8.722;2023-06-10T01:14:13;6.23;;;5.40;;
78903;SDS011;68291;49.602;8.722;2023-06-10T01:17:11;5.90;;;5.30;;
78903;SDS011;68291;49.602;8.722;2023-06-10T01:20:26;9.03;;;6.07;;
78903;SDS011;68291;49.602;8.722;2023-06-10T01:23:26;6.03;;;5.43;;
78903;SDS011;68291;49.602;8.722;2023-06-10T01:26:22;6.10;;;5.50;;
78903;SDS011;68291;49.602;8.722;2023-06-10T01:29:40;5.97;;;5.47;;
78903;SDS011;68291;49.602;8.722;2023-06-10T01:32:36;6.33;;;5.73;;
78903;SDS011;68291;49.602;8.722;2023-06-10T01:35:33;8.47;;;5.53;;
78903;SDS011;68291;49.602;8.722;2023-06-10T01:38:51;11.33;;;5.53;;
78903;SDS011;68291;49.602;8.722;2023-06-10T01:41:51;5.63;;;5.10;;
78903;SDS011;68291;49.602;8.722;2023-06-10T01:44:41;5.87;;;5.37;;
78903;SDS011;68291;49.602;8.722;2023-06-10T01:47:30;6.17;;;5.53;;
78903;SDS011;68291;49.602;8.722;2023-06-10T01:50:28;6.60;;;5.43;;
78903;SDS011;68291;49.602;8.722;2023-06-10T01:53:27;6.43;;;5.73;;
78903;SDS011;68291;49.602;8.722;2023-06-10T01:56:37;6.97;;;5.83;;
78903;SDS011;68291;49.602;8.722;2023-06-10T01:59:36;6.90;;;6.17;;
78903;SDS011;68291;49.602;8.722;2023-06-10T02:02:34;6.63;;;6.03;;
78903;SDS011;68291;49.602;8.722;2023-06-10T02:05:48;6.53;;;5.93;;
78903;SDS011;68291;49.602;8.722;2023-06-10T02:08:42;6.20;;;5.60;;
78903;SDS011;68291;49.602;8.722;2023-06-10T02:11:52;8.57;;;6.07;;
78903;SDS011;68291;49.602;8.722;2023-06-10T02:14:44;7.40;;;6.03;;
78903;SDS011;68291;49.602;8.722;2023-06-10T02:17:46;6.47;;;5.90;;
78903;SDS011;68291;49.602;8.722;2023-06-10T02:20:44;6.43;;;5.83;;
78903;SDS011;68291;49.602;8.722;2023-06-10T02:23:44;6.00;;;5.50;;
78903;SDS011;68291;49.602;8.722;2023-06-10T02:26:42;7.23;;;6.10;;
78903;SDS011;68291;49.602;8.722;2023-06-10T02:29:42;8.67;;;6.10;;
78903;SDS011;68291;49.602;8.722;2023-06-10T02:32:39;6.67;;;6.03;;
78903;SDS011;68291;49.602;8.722;2023-06-10T02:35:38;6.40;;;5.80;;
78903;SDS011;68291;49.602;8.722;2023-06-10T02:38:36;11.57;;;6.23;;
78903;SDS011;68291;49.602;8.722;2023-06-10T02:41:30;9.00;;;6.20;;
78903;SDS011;68291;49.602;8.722;2023-06-10T02:44:21;6.63;;;5.67;;
78903;SDS011;68291;49.602;8.722;2023-06-10T02:47:31;7.13;;;6.30;;
78903;SDS011;68291;49.602;8.722;2023-06-10T02:50:21;6.57;;;5.97;;
78903;SDS011;68291;49.602;8.722;2023-06-10T02:53:29;6.53;;;5.93;;
78903;SDS011;68291;49.602;8.722;2023-06-10T02:56:28;7.00;;;6.33;;
78903;SDS011;68291;49.602;8.722;2023-06-10T02:59:32;6.80;;;6.20;;
78903;SDS011;68291;49.602;8.722;2023-06-10T03:02:26;6.40;;;5.80;;
78903;SDS011;68291;49.602;8.722;2023-06-10T03:05:17;7.53;;;6.03;;
78903;SDS011;68291;49.602;8.722;2023-06-10T03:08:12;6.43;;;5.83;;
78903;SDS011;68291;49.602;8.722;2023-06-10T03:11:11;6.27;;;5.67;;
78903;SDS011;68291;49.602;8.722;2023-06-10T03:14:00;7.07;;;5.83;;
78903;SDS011;68291;49.602;8.722;2023-06-10T03:17:19;6.60;;;5.90;;
78903;SDS011;68291;49.602;8.722;2023-06-10T03:20:15;6.63;;;6.00;;
78903;SDS011;68291;49.602;8.722;2023-06-10T03:23:14;9.80;;;6.10;;
78903;SDS011;68291;49.602;8.722;2023-06-10T03:26:04;6.80;;;5.80;;
78903;SDS011;68291;49.602;8.722;2023-06-10T03:29:06;11.27;;;6.33;;
78903;SDS011;68291;49.602;8.722;2023-06-10T03:31:55;10.53;;;5.80;;
78903;SDS011;68291;49.602;8.722;2023-06-10T03:35:00;6.90;;;6.17;;
78903;SDS011;68291;49.602;8.722;2023-06-10T03:38:16;7.30;;;5.80;;
78903;SDS011;68291;49.602;8.722;2023-06-10T03:41:07;8.23;;;6.33;;
78903;SDS011;68291;49.602;8.722;2023-06-10T03:44:07;9.03;;;5.77;;
78903;SDS011;68291;49.602;8.722;2023-06-10T03:47:06;7.20;;;5.93;;
78903;SDS011;68291;49.602;8.722;2023-06-10T03:50:05;9.03;;;5.80;;
78903;SDS011;68291;49.602;8.722;2023-06-10T03:53:17;6.40;;;5.77;;
78903;SDS011;68291;49.602;8.722;2023-06-10T03:56:10;6.53;;;5.93;;
78903;SDS011;68291;49.602;8.722;2023-06-10T03:59:03;6.47;;;5.87;;
78903;SDS011;68291;49.602;8.722;2023-06-10T04:01:52;6.33;;;5.73;;
78903;SDS011;68291;49.602;8.722;2023-06-10T04:04:42;7.20;;;6.50;;
78903;SDS011;68291;49.602;8.722;2023-06-10T04:08:00;9.30;;;6.07;;
78903;SDS011;68291;49.602;8.722;2023-06-10T04:11:07;9.30;;;5.50;;
78903;SDS011;68291;49.602;8.722;2023-06-10T04:14:21;7.33;;;6.50;;
78903;SDS011;68291;49.602;8.722;2023-06-10T04:17:20;6.60;;;5.90;;
78903;SDS011;68291;49.602;8.722;2023-06-10T04:20:18;6.20;;;5.60;;
78903;SDS011;68291;49.602;8.722;2023-06-10T04:23:36;8.23;;;6.40;;
78903;SDS011;68291;49.602;8.722;2023-06-10T04:26:41;8.43;;;6.20;;
78903;SDS011;68291;49.602;8.722;2023-06-10T04:29:33;6.97;;;5.83;;
78903;SDS011;68291;49.602;8.722;2023-06-10T04:32:36;6.63;;;5.70;;
78903;SDS011;68291;49.602;8.722;2023-06-10T04:35:30;13.10;;;6.00;;
78903;SDS011;68291;49.602;8.722;2023-06-10T04:38:23;9.20;;;5.93;;
78903;SDS011;68291;49.602;8.722;2023-06-10T04:41:18;8.23;;;5.93;;
78903;SDS011;68291;49.602;8.722;2023-06-10T04:44:34;7.03;;;5.97;;
78903;SDS011;68291;49.602;8.722;2023-06-10T04:47:38;6.67;;;5.97;;
78903;SDS011;68291;49.602;8.722;2023-06-10T04:50:46;6.13;;;5.60;;
78903;SDS011;68291;49.602;8.722;2023-06-10T04:53:37;6.60;;;6.00;;
78903;SDS011;68291;49.602;8.722;2023-06-10T04:56:35;7.03;;;6.03;;
78903;SDS011;68291;49.602;8.722;2023-06-10T04:59:38;6.90;;;6.30;;
78903;SDS011;68291;49.602;8.722;2023-06-10T05:02:43;6.70;;;6.10;;
78903;SDS011;68291;49.602;8.722;2023-06-10T05:05:41;7.03;;;6.23;;
78903;SDS011;68291;49.602;8.722;2023-06-10T05:08:31;7.90;;;6.20;;
78903;SDS011;68291;49.602;8.722;2023-06-10T05:11:29;6.87;;;6.20;;
78903;SDS011;68291;49.602;8.722;2023-06-10T05:14:41;7.87;;;6.10;;
78903;SDS011;68291;49.602;8.722;2023-06-10T05:17:40;8.70;;;6.20;;
78903;SDS011;68291;49.602;8.722;2023-06-10T05:20:58;6.43;;;5.83;;
78903;SDS011;68291;49.602;8.722;2023-06-10T05:23:48;7.90;;;5.30;;
78903;SDS011;68291;49.602;8.722;2023-06-10T05:26:41;6.87;;;6.13;;
78903;SDS011;68291;49.602;8.722;2023-06-10T05:29:35;6.80;;;5.87;;
78903;SDS011;68291;49.602;8.722;2023-06-10T05:32:32;7.13;;;5.67;;
78903;SDS011;68291;49.602;8.722;2023-06-10T05:35:30;8.03;;;5.17;;
78903;SDS011;68291;49.602;8.722;2023-06-10T05:38:28;6.80;;;5.67;;
78903;SDS011;68291;49.602;8.722;2023-06-10T05:41:26;8.20;;;5.63;;
78903;SDS011;68291;49.602;8.722;2023-06-10T05:44:24;5.90;;;5.33;;
78903;SDS011;68291;49.602;8.722;2023-06-10T05:47:15;5.87;;;5.37;;
78903;SDS011;68291;49.602;8.722;2023-06-10T05:50:28;6.27;;;5.13;;
78903;SDS011;68291;49.602;8.722;2023-06-10T05:53:26;7.03;;;5.67;;
78903;SDS011;68291;49.602;8.722;2023-06-10T05:56:16;7.40;;;6.60;;
78903;SDS011;68291;49.602;8.722;2023-06-10T05:59:14;6.27;;;5.67;;
78903;SDS011;68291;49.602;8.722;2023-06-10T06:02:19;5.20;;;4.63;;
78903;SDS011;68291;49.602;8.722;2023-06-10T06:05:16;9.43;;;4.77;;
78903;SDS011;68291;49.602;8.722;2023-06-10T06:08:14;4.83;;;4.33;;
78903;SDS011;68291;49.602;8.722;2023-06-10T06:11:13;10.60;;;5.43;;
78903;SDS011;68291;49.602;8.722;2023-06-10T06:14:04;5.87;;;5.00;;
78903;SDS011;68291;49.602;8.722;2023-06-10T06:17:02;5.93;;;4.80;;
78903;SDS011;68291;49.602;8.722;2023-06-10T06:20:10;6.40;;;4.70;;
78903;SDS011;68291;49.602;8.722;2023-06-10T06:23:12;4.53;;;4.13;;
78903;SDS011;68291;49.602;8.722;2023-06-10T06:26:11;5.50;;;4.57;;
78903;SDS011;68291;49.602;8.722;2023-06-10T06:29:08;5.70;;;4.43;;
78903;SDS011;68291;49.602;8.722;2023-06-10T06:32:16;6.63;;;4.47;;
78903;SDS011;68291;49.602;8.722;2023-06-10T06:35:33;6.87;;;4.83;;
78903;SDS011;68291;49.602;8.722;2023-06-10T06:38:24;5.37;;;4.53;;
78903;SDS011;68291;49.602;8.722;2023-06-10T06:41:22;6.93;;;4.50;;
78903;SDS011;68291;49.602;8.722;2023-06-10T06:44:24;5.20;;;4.70;;
78903;SDS011;68291;49.602;8.722;2023-06-10T06:47:21;6.57;;;4.87;;
78903;SDS011;68291;49.602;8.722;2023-06-10T06:50:45;4.70;;;4.30;;
78903;SDS011;68291;49.602;8.722;2023-06-10T06:53:48;5.13;;;4.63;;
78903;SDS011;68291;49.602;8.722;2023-06-10T06:56:47;5.73;;;4.57;;
78903;SDS011;68291;49.602;8.722;2023-06-10T06:59:50;6.87;;;5.03;;
78903;SDS011;68291;49.602;8.722;2023-06-10T07:02:48;5.50;;;5.00;;
78903;SDS011;68291;49.602;8.722;2023-06-10T07:06:05;4.87;;;4.47;;
78903;SDS011;68291;49.602;8.722;2023-06-10T07:09:04;5.33;;;4.83;;
78903;SDS011;68291;49.602;8.722;2023-06-10T07:12:02;5.33;;;4.67;;
78903;SDS011;68291;49.602;8.722;2023-06-10T07:14:54;5.80;;;4.37;;
78903;SDS011;68291;49.602;8.722;2023-06-10T07:17:43;6.87;;;4.43;;
78903;SDS011;68291;49.602;8.722;2023-06-10T07:20:41;4.70;;;4.30;;
78903;SDS011;68291;49.602;8.722;2023-06-10T07:23:47;5.80;;;4.63;;
78903;SDS011;68291;49.602;8.722;2023-06-10T07:26:41;5.60;;;4.47;;
78903;SDS011;68291;49.602;8.722;2023-06-10T07:29:35;4.77;;;4.33;;
78903;SDS011;68291;49.602;8.722;2023-06-10T07:32:30;5.37;;;4.17;;
78903;SDS011;68291;49.602;8.722;2023-06-10T07:35:22;6.00;;;4.30;;
78903;SDS011;68291;49.602;8.722;2023-06-10T07:38:20;4.70;;;4.30;;
78903;SDS011;68291;49.602;8.722;2023-06-10T07:41:16;6.80;;;4.50;;
78903;SDS011;68291;49.602;8.722;2023-06-10T07:44:07;4.60;;;4.20;;
78903;SDS011;68291;49.602;8.722;2023-06-10T07:46:57;5.70;;;4.60;;
78903;SDS011;68291;49.602;8.722;2023-06-10T07:49:48;6.30;;;4.10;;
78903;SDS011;68291;49.602;8.722;2023-06-10T07:52:47;5.13;;;4.20;;
78903;SDS011;68291;49.602;8.722;2023-06-10T07:55:49;5.07;;;4.43;;
78903;SDS011;68291;49.602;8.722;2023-06-10T07:58:39;5.07;;;4.20;;
78903;SDS011;68291;49.602;8.722;2023-06-10T08:01:30;5.23;;;4.40;;
78903;SDS011;68291;49.602;8.722;2023-06-10T08:04:23;6.60;;;4.53;;
78903;SDS011;68291;49.602;8.722;2023-06-10T08:07:13;5.97;;;4.43;;
78903;SDS011;68291;49.602;8.722;2023-06-10T08:10:05;9.83;;;5.00;;
78903;SDS011;68291;49.602;8.722;2023-06-10T08:13:03;16.93;;;4.87;;
78903;SDS011;68291;49.602;8.722;2023-06-10T08:15:55;6.47;;;4.60;;
78903;SDS011;68291;49.602;8.722;2023-06-10T08:18:48;5.03;;;4.53;;
78903;SDS011;68291;49.602;8.722;2023-06-10T08:21:43;5.47;;;4.30;;
78903;SDS011;68291;49.602;8.722;2023-06-10T08:24:41;7.77;;;4.57;;
78903;SDS011;68291;49.602;8.722;2023-06-10T08:27:35;5.23;;;4.20;;
78903;SDS011;68291;49.602;8.722;2023-06-10T08:30:25;8.07;;;4.43;;
78903;SDS011;68291;49.602;8.722;2023-06-10T08:33:21;4.47;;;4.03;;
78903;SDS011;68291;49.602;8.722;2023-06-10T08:36:15;4.90;;;4.40;;
78903;SDS011;68291;49.602;8.722;2023-06-10T08:39:04;4.97;;;4.47;;
78903;SDS011;68291;49.602;8.722;2023-06-10T08:41:58;4.83;;;4.33;;
78903;SDS011;68291;49.602;8.722;2023-06-10T08:45:04;4.73;;;4.10;;
78903;SDS011;68291;49.602;8.722;2023-06-10T08:48:03;4.63;;;4.20;;
78903;SDS011;68291;49.602;8.722;2023-06-10T08:51:16;11.03;;;4.43;;
78903;SDS011;68291;49.602;8.722;2023-06-10T08:54:09;5.50;;;4.23;;
78903;SDS011;68291;49.602;8.722;2023-06-10T08:57:08;5.77;;;4.37;;
78903;SDS011;68291;49.602;8.722;2023-06-10T08:59:59;7.07;;;4.20;;
78903;SDS011;68291;49.602;8.722;2023-06-10T09:02:52;4.83;;;4.40;;
78903;SDS011;68291;49.602;8.722;2023-06-10T09:05:50;8.07;;;4.87;;
78903;SDS011;68291;49.602;8.722;2023-06-10T09:08:51;6.70;;;4.57;;
78903;SDS011;68291;49.602;8.722;2023-06-10T09:11:40;8.27;;;4.00;;
78903;SDS011;68291;49.602;8.722;2023-06-10T09:14:31;4.87;;;4.37;;
78903;SDS011;68291;49.602;8.722;2023-06-10T09:17:26;5.13;;;4.50;;
78903;SDS011;68291;49.602;8.722;2023-06-10T09:20:27;6.57;;;4.57;;
78903;SDS011;68291;49.602;8.722;2023-06-10T09:23:17;7.80;;;4.40;;
78903;SDS011;68291;49.602;8.722;2023-06-10T09:26:12;9.90;;;4.87;;
78903;SDS011;68291;49.602;8.722;2023-06-10T09:29:03;5.77;;;4.17;;
78903;SDS011;68291;49.602;8.722;2023-06-10T09:32:18;4.80;;;4.40;;
78903;SDS011;68291;49.602;8.722;2023-06-10T09:35:09;5.77;;;4.33;;
78903;SDS011;68291;49.602;8.722;2023-06-10T09:38:07;10.43;;;4.33;;
78903;SDS011;68291;49.602;8.722;2023-06-10T09:41:03;5.17;;;4.13;;
78903;SDS011;68291;49.602;8.722;2023-06-10T09:44:23;5.50;;;4.10;;
78903;SDS011;68291;49.602;8.722;2023-06-10T09:47:20;10.60;;;4.27;;
78903;SDS011;68291;49.602;8.722;2023-06-10T09:50:09;4.40;;;4.00;;
78903;SDS011;68291;49.602;8.722;2023-06-10T09:53:07;4.33;;;3.70;;
78903;SDS011;68291;49.602;8.722;2023-06-10T09:55:57;4.37;;;3.93;;
78903;SDS011;68291;49.602;8.722;2023-06-10T09:58:49;7.40;;;3.60;;
78903;SDS011;68291;49.602;8.722;2023-06-10T10:02:18;4.87;;;3.57;;
78903;SDS011;68291;49.602;8.722;2023-06-10T10:05:13;12.00;;;4.67;;
78903;SDS011;68291;49.602;8.722;2023-06-10T10:08:07;5.90;;;3.63;;
78903;SDS011;68291;49.602;8.722;2023-06-10T10:11:02;4.53;;;3.33;;
78903;SDS011;68291;49.602;8.722;2023-06-10T10:13:53;4.07;;;3.30;;
78903;SDS011;68291;49.602;8.722;2023-06-10T10:16:49;4.17;;;3.60;;
78903;SDS011;68291;49.602;8.722;2023-06-10T10:19:48;4.00;;;3.60;;
78903;SDS011;68291;49.602;8.722;2023-06-10T10:22:43;4.07;;;3.77;;
78903;SDS011;68291;49.602;8.722;2023-06-10T10:25:38;6.07;;;3.80;;
78903;SDS011;68291;49.602;8.722;2023-06-10T10:28:45;3.50;;;3.20;;
78903;SDS011;68291;49.602;8.722;2023-06-10T10:31:51;4.27;;;3.57;;
78903;SDS011;68291;49.602;8.722;2023-06-10T10:35:14;5.83;;;4.63;;
78903;SDS011;68291;49.602;8.722;2023-06-10T10:38:10;4.83;;;4.37;;
78903;SDS011;68291;49.602;8.722;2023-06-10T10:41:08;5.23;;;4.40;;
78903;SDS011;68291;49.602;8.722;2023-06-10T10:44:02;19.57;;;4.23;;
78903;SDS011;68291;49.602;8.722;2023-06-10T10:47:02;9.70;;;4.00;;
78903;SDS011;68291;49.602;8.722;2023-06-10T10:50:00;4.10;;;3.63;;
78903;SDS011;68291;49.602;8.722;2023-06-10T10:53:03;4.43;;;3.30;;
78903;SDS011;68291;49.602;8.722;2023-06-10T10:56:05;3.50;;;3.20;;
78903;SDS011;68291;49.602;8.722;2023-06-10T10:59:03;5.53;;;3.50;;
78903;SDS011;68291;49.602;8.722;2023-06-10T11:01:57;14.60;;;3.90;;
78903;SDS011;68291;49.602;8.722;2023-06-10T11:04:55;15.70;;;4.17;;
78903;SDS011;68291;49.602;8.722;2023-06-10T11:07:53;25.43;;;4.20;;
78903;SDS011;68291;49.602;8.722;2023-06-10T11:10:56;8.03;;;3.70;;
78903;SDS011;68291;49.602;8.722;2023-06-10T11:14:06;9.93;;;3.50;;
78903;SDS011;68291;49.602;8.722;2023-06-10T11:17:01;5.57;;;3.10;;
78903;SDS011;68291;49.602;8.722;2023-06-10T11:20:08;16.03;;;3.93;;
78903;SDS011;68291;49.602;8.722;2023-06-10T11:23:01;5.70;;;3.30;;
78903;SDS011;68291;49.602;8.722;2023-06-10T11:25:59;3.57;;;3.20;;
78903;SDS011;68291;49.602;8.722;2023-06-10T11:29:25;5.50;;;3.33;;
78903;SDS011;68291;49.602;8.722;2023-06-10T11:32:23;15.40;;;3.97;;
78903;SDS011;68291;49.602;8.722;2023-06-10T11:35:19;7.07;;;3.30;;
78903;SDS011;68291;49.602;8.722;2023-06-10T11:38:18;3.43;;;3.13;;
78903;SDS011;68291;49.602;8.722;2023-06-10T11:41:15;3.80;;;3.43;;
78903;SDS011;68291;49.602;8.722;2023-06-10T11:44:10;6.30;;;3.60;;
78903;SDS011;68291;49.602;8.722;2023-06-10T11:47:05;11.73;;;3.60;;
78903;SDS011;68291;49.602;8.722;2023-06-10T11:49:58;4.37;;;3.50;;
78903;SDS011;68291;49.602;8.722;2023-06-10T11:52:49;5.17;;;3.80;;
78903;SDS011;68291;49.602;8.722;2023-06-10T11:55:48;5.63;;;3.30;;
78903;SDS011;68291;49.602;8.722;2023-06-10T11:58:53;3.43;;;3.13;;
78903;SDS011;68291;49.602;8.722;2023-06-10T12:01:44;3.80;;;3.00;;
78903;SDS011;68291;49.602;8.722;2023-06-10T12:04:36;6.60;;;3.23;;
78903;SDS011;68291;49.602;8.722;2023-06-10T12:07:30;5.07;;;3.07;;
78903;SDS011;68291;49.602;8.722;2023-06-10T12:10:24;11.57;;;3.43;;
78903;SDS011;68291;49.602;8.722;2023-06-10T12:13:26;6.90;;;3.60;;
78903;SDS011;68291;49.602;8.722;2023-06-10T12:16:37;31.93;;;4.20;;
78903;SDS011;68291;49.602;8.722;2023-06-10T12:19:38;219.63;;;13.87;;
78903;SDS011;68291;49.602;8.722;2023-06-10T12:22:27;22.47;;;4.97;;
78903;SDS011;68291;49.602;8.722;2023-06-10T12:25:26;4.43;;;3.00;;
78903;SDS011;68291;49.602;8.722;2023-06-10T12:28:24;9.47;;;3.00;;
78903;SDS011;68291;49.602;8.722;2023-06-10T12:31:14;23.93;;;6.60;;
78903;SDS011;68291;49.602;8.722;2023-06-10T12:34:14;10.80;;;3.87;;
78903;SDS011;68291;49.602;8.722;2023-06-10T12:37:14;124.53;;;7.83;;
78903;SDS011;68291;49.602;8.722;2023-06-10T12:40:05;6.13;;;3.27;;
78903;SDS011;68291;49.602;8.722;2023-06-10T12:43:03;62.20;;;6.45;;
78903;SDS011;68291;49.602;8.722;2023-06-10T12:45:52;19.30;;;4.40;;
78903;SDS011;68291;49.602;8.722;2023-06-10T12:48:51;3.95;;;3.13;;
78903;SDS011;68291;49.602;8.722;2023-06-10T12:51:55;164.70;;;11.57;;
78903;SDS011;68291;49.602;8.722;2023-06-10T12:54:47;151.98;;;13.57;;
78903;SDS011;68291;49.602;8.722;2023-06-10T12:57:50;20.13;;;3.80;;
78903;SDS011;68291;49.602;8.722;2023-06-10T13:00:40;12.00;;;3.67;;
78903;SDS011;68291;49.602;8.722;2023-06-10T13:03:34;10.65;;;2.90;;
78903;SDS011;68291;49.602;8.722;2023-06-10T13:06:36;6.10;;;3.08;;
78903;SDS011;68291;49.602;8.722;2023-06-10T13:09:32;4.50;;;3.13;;
78903;SDS011;68291;49.602;8.722;2023-06-10T13:12:26;3.30;;;3.00;;
78903;SDS011;68291;49.602;8.722;2023-06-10T13:15:37;3.50;;;2.92;;
78903;SDS011;68291;49.602;8.722;2023-06-10T13:18:36;8.52;;;3.10;;
78903;SDS011;68291;49.602;8.722;2023-06-10T13:21:29;3.22;;;2.88;;
78903;SDS011;68291;49.602;8.722;2023-06-10T13:24:19;18.23;;;5.50;;
78903;SDS011;68291;49.602;8.722;2023-06-10T13:27:17;6.13;;;4.45;;
78903;SDS011;68291;49.602;8.722;2023-06-10T13:30:21;7.63;;;3.67;;
78903;SDS011;68291;49.602;8.722;2023-06-10T13:33:20;10.00;;;3.97;;
78903;SDS011;68291;49.602;8.722;2023-06-10T13:36:15;12.57;;;3.83;;
78903;SDS011;68291;49.602;8.722;2023-06-10T13:39:05;11.13;;;3.80;;
78903;SDS011;68291;49.602;8.722;2023-06-10T13:42:00;3.08;;;2.78;;
78903;SDS011;68291;49.602;8.722;2023-06-10T13:44:59;4.22;;;2.42;;
78903;SDS011;68291;49.602;8.722;2023-06-10T13:47:57;9.00;;;2.60;;
78903;SDS011;68291;49.602;8.722;2023-06-10T13:51:06;20.90;;;4.78;;
78903;SDS011;68291;49.602;8.722;2023-06-10T13:54:03;39.63;;;6.80;;
78903;SDS011;68291;49.602;8.722;2023-06-10T13:57:03;7.50;;;3.08;;
78903;SDS011;68291;49.602;8.722;2023-06-10T13:59:59;10.32;;;3.17;;
78903;SDS011;68291;49.602;8.722;2023-06-10T14:02:49;16.23;;;3.53;;
78903;SDS011;68291;49.602;8.722;2023-06-10T14:05:42;18.42;;;3.53;;
78903;SDS011;68291;49.602;8.722;2023-06-10T14:08:43;38.10;;;5.57;;
78903;SDS011;68291;49.602;8.722;2023-06-10T14:11:32;60.33;;;6.40;;
78903;SDS011;68291;49.602;8.722;2023-06-10T14:14:23;8.80;;;3.20;;
78903;SDS011;68291;49.602;8.722;2023-06-10T14:17:24;9.20;;;3.65;;
78903;SDS011;68291;49.602;8.722;2023-06-10T14:20:19;3.20;;;2.90;;
78903;SDS011;68291;49.602;8.722;2023-06-10T14:23:17;4.70;;;3.15;;
78903;SDS011;68291;49.602;8.722;2023-06-10T14:26:07;10.07;;;3.47;;
78903;SDS011;68291;49.602;8.722;2023-06-10T14:29:15;53.42;;;6.50;;
78903;SDS011;68291;49.602;8.722;2023-06-10T14:32:05;4.55;;;2.70;;
78903;SDS011;68291;49.602;8.722;2023-06-10T14:35:16;3.78;;;2.60;;
78903;SDS011;68291;49.602;8.722;2023-06-10T14:38:06;8.30;;;2.80;;
78903;SDS011;68291;49.602;8.722;2023-06-10T14:41:08;6.43;;;2.78;;
78903;SDS011;68291;49.602;8.722;2023-06-10T14:44:06;20.35;;;3.55;;
78903;SDS011;68291;49.602;8.722;2023-06-10T14:47:15;45.03;;;5.32;;
78903;SDS011;68291;49.602;8.722;2023-06-10T14:50:13;86.00;;;10.23;;
78903;SDS011;68291;49.602;8.722;2023-06-10T14:53:13;16.58;;;4.25;;
78903;SDS011;68291;49.602;8.722;2023-06-10T14:56:11;9.45;;;3.40;;
78903;SDS011;68291;49.602;8.722;2023-06-10T14:59:09;9.43;;;3.30;;
78903;SDS011;68291;49.602;8.722;2023-06-10T15:02:03;24.73;;;4.93;;
78903;SDS011;68291;49.602;8.722;2023-06-10T15:04:53;5.50;;;2.75;;
78903;SDS011;68291;49.602;8.722;2023-06-10T15:07:56;12.18;;;3.03;;
78903;SDS011;68291;49.602;8.722;2023-06-10T15:10:49;4.63;;;3.08;;
78903;SDS011;68291;49.602;8.722;2023-06-10T15:13:52;10.38;;;2.70;;
78903;SDS011;68291;49.602;8.722;2023-06-10T15:16:51;13.98;;;3.35;;
78903;SDS011;68291;49.602;8.722;2023-06-10T15:19:59;5.07;;;2.55;;
78903;SDS011;68291;49.602;8.722;2023-06-10T15:22:48;2.83;;;2.35;;
78903;SDS011;68291;49.602;8.722;2023-06-10T15:25:41;2.47;;;2.28;;
78903;SDS011;68291;49.602;8.722;2023-06-10T15:28:40;2.90;;;2.70;;
78903;SDS011;68291;49.602;8.722;2023-06-10T15:31:36;2.65;;;2.45;;
78903;SDS011;68291;49.602;8.722;2023-06-10T15:34:30;3.47;;;2.60;;
78903;SDS011;68291;49.602;8.722;2023-06-10T15:37:20;2.58;;;2.38;;
78903;SDS011;68291;49.602;8.722;2023-06-10T15:40:10;2.53;;;2.33;;
78903;SDS011;68291;49.602;8.722;2023-06-10T15:43:05;5.07;;;2.80;;
78903;SDS011;68291;49.602;8.722;2023-06-10T15:45:54;5.47;;;2.60;;
78903;SDS011;68291;49.602;8.722;2023-06-10T15:48:46;5.15;;;2.25;;
78903;SDS011;68291;49.602;8.722;2023-06-10T15:51:44;3.58;;;2.42;;
78903;SDS011;68291;49.602;8.722;2023-06-10T15:54:37;3.40;;;2.22;;
78903;SDS011;68291;49.602;8.722;2023-06-10T15:57:39;2.55;;;2.35;;
78903;SDS011;68291;49.602;8.722;2023-06-10T16:00:35;3.60;;;2.60;;
78903;SDS011;68291;49.602;8.722;2023-06-10T16:03:27;2.50;;;2.30;;
78903;SDS011;68291;49.602;8.722;2023-06-10T16:06:28;4.05;;;2.55;;
78903;SDS011;68291;49.602;8.722;2023-06-10T16:09:36;2.67;;;2.47;;
78903;SDS011;68291;49.602;8.722;2023-06-10T16:12:34;3.25;;;2.60;;
78903;SDS011;68291;49.602;8.722;2023-06-10T16:15:41;2.72;;;2.47;;
78903;SDS011;68291;49.602;8.722;2023-06-10T16:18:30;2.88;;;2.35;;
78903;SDS011;68291;49.602;8.722;2023-06-10T16:21:27;2.38;;;2.17;;
78903;SDS011;68291;49.602;8.722;2023-06-10T16:24:27;3.60;;;2.55;;
78903;SDS011;68291;49.602;8.722;2023-06-10T16:27:17;2.63;;;2.42;;
78903;SDS011;68291;49.602;8.722;2023-06-10T16:30:15;2.55;;;2.35;;
78903;SDS011;68291;49.602;8.722;2023-06-10T16:33:21;2.70;;;2.50;;
78903;SDS011;68291;49.602;8.722;2023-06-10T16:36:15;2.70;;;2.50;;
78903;SDS011;68291;49.602;8.722;2023-06-10T16:39:11;2.65;;;2.45;;
78903;SDS011;68291;49.602;8.722;2023-06-10T16:42:05;2.50;;;2.30;;
78903;SDS011;68291;49.602;8.722;2023-06-10T16:45:14;2.75;;;2.55;;
78903;SDS011;68291;49.602;8.722;2023-06-10T16:48:06;2.85;;;2.20;;
78903;SDS011;68291;49.602;8.722;2023-06-10T16:51:19;2.60;;;2.40;;
78903;SDS011;68291;49.602;8.722;2023-06-10T16:54:09;3.45;;;2.42;;
78903;SDS011;68291;49.602;8.722;2023-06-10T16:56:58;2.72;;;2.53;;
78903;SDS011;68291;49.602;8.722;2023-06-10T16:59:54;2.70;;;2.50;;
78903;SDS011;68291;49.602;8.722;2023-06-10T17:02:55;2.63;;;2.42;;
78903;SDS011;68291;49.602;8.722;2023-06-10T17:06:02;2.50;;;2.22;;
78903;SDS011;68291;49.602;8.722;2023-06-10T17:09:11;2.65;;;2.45;;
78903;SDS011;68291;49.602;8.722;2023-06-10T17:12:10;3.40;;;2.83;;
78903;SDS011;68291;49.602;8.722;2023-06-10T17:15:08;5.07;;;2.65;;
78903;SDS011;68291;49.602;8.722;2023-06-10T17:18:06;2.78;;;2.58;;
78903;SDS011;68291;49.602;8.722;2023-06-10T17:21:19;3.55;;;2.72;;
78903;SDS011;68291;49.602;8.722;2023-06-10T17:24:18;4.35;;;2.88;;
78903;SDS011;68291;49.602;8.722;2023-06-10T17:27:37;2.83;;;2.45;;
78903;SDS011;68291;49.602;8.722;2023-06-10T17:30:41;5.65;;;3.00;;
78903;SDS011;68291;49.602;8.722;2023-06-10T17:33:39;3.38;;;2.50;;
78903;SDS011;68291;49.602;8.722;2023-06-10T17:36:41;3.65;;;2.75;;
78903;SDS011;68291;49.602;8.722;2023-06-10T17:39:51;3.55;;;2.78;;
78903;SDS011;68291;49.602;8.722;2023-06-10T17:42:50;2.70;;;2.50;;
78903;SDS011;68291;49.602;8.722;2023-06-10T17:45:47;4.18;;;2.60;;
78903;SDS011;68291;49.602;8.722;2023-06-10T17:48:40;3.00;;;2.75;;
78903;SDS011;68291;49.602;8.722;2023-06-10T17:51:41;3.58;;;2.92;;